Time;durP1;ratioP1;P1;durP2;ratioP2;P2;SDS_P1;SDS_P2;PMS_P1;PMS_P2;Temp;Humidity;BMP_temperature;BMP_pressure;BME280_temperature;BME280_humidity;BME280_pressure;Samples;Min_cycle;Max_cycle;Signal;HPM_P1;HPM_P2
2024/02/09 00:02:20;;;;;;;10.07;7.27;;;;;;;;;;5039109;28;20755;-80
2024/02/09 00:04:46;;;;;;;8.77;7.20;;;;;;;;;;5037430;28;20405;-80
2024/02/09 00:07:13;;;;;;;11.00;7.75;;;;;;;;;;5039366;28;20419;-80
2024/02/09 00:09:39;;;;;;;10.97;7.10;;;;;;;;;;5039092;28;20486;-80
2024/02/09 00:12:06;;;;;;;10.13;7.43;;;;;;;;;;5039079;28;20394;-80
2024/02/09 00:14:32;;;;;;;9.50;6.73;;;;;;;;;;5038541;28;20407;-80
2024/02/09 00:16:59;;;;;;;9.27;6.60;;;;;;;;;;5038202;28;20410;-80
2024/02/09 00:19:25;;;;;;;8.38;6.25;;;;;;;;;;5038681;28;20812;-81
2024/02/09 00:21:51;;;;;;;8.40;6.63;;;;;;;;;;5039011;28;20379;-80
2024/02/09 00:24:17;;;;;;;7.63;6.25;;;;;;;;;;5039081;28;20413;-80
2024/02/09 00:26:43;;;;;;;6.75;5.72;;;;;;;;;;5038540;28;20387;-81
2024/02/09 00:29:10;;;;;;;7.73;6.03;;;;;;;;;;5038122;28;20910;-80
2024/02/09 00:31:36;;;;;;;11.02;6.55;;;;;;;;;;5041627;28;20394;-79
2024/02/09 00:34:02;;;;;;;7.83;6.13;;;;;;;;;;5042939;28;20414;-82
2024/02/09 00:36:29;;;;;;;8.15;6.43;;;;;;;;;;5042610;28;20383;-82
2024/02/09 00:38:56;;;;;;;9.85;6.40;;;;;;;;;;5043038;28;20372;-81
2024/02/09 00:41:22;;;;;;;8.27;5.93;;;;;;;;;;5043019;28;20925;-82
2024/02/09 00:43:48;;;;;;;9.87;5.93;;;;;;;;;;5042313;28;20426;-81
2024/02/09 00:46:15;;;;;;;6.22;5.63;;;;;;;;;;5043130;28;20772;-81
2024/02/09 00:48:41;;;;;;;8.27;5.57;;;;;;;;;;5041827;28;20390;-82
2024/02/09 00:51:08;;;;;;;7.85;5.93;;;;;;;;;;5042480;28;20391;-82
2024/02/09 00:53:34;;;;;;;7.83;5.67;;;;;;;;;;5042967;28;20522;-82
2024/02/09 00:56:00;;;;;;;7.20;5.80;;;;;;;;;;5042979;28;20434;-81
2024/02/09 00:58:26;;;;;;;6.05;5.45;;;;;;;;;;5042729;28;20379;-82
2024/02/09 01:00:52;;;;;;;7.55;5.78;;;;;;;;;;5042508;28;20516;-82
2024/02/09 01:03:20;;;;;;;7.30;5.35;;;;;;;;;;5042050;28;20399;-81
2024/02/09 01:05:46;;;;;;;6.60;5.32;;;;;;;;;;5042135;28;20433;-81
2024/02/09 01:08:12;;;;;;;6.20;5.60;;;;;;;;;;5042023;28;20842;-81
2024/02/09 01:10:39;;;;;;;8.63;5.80;;;;;;;;;;5041521;28;20466;-81
2024/02/09 02:46:17;;;;;;;11.40;9.50;;;;;;;;;;5035566;28;20849;-81
2024/02/09 03:05:20;;;;;;;9.63;8.70;;;;;;;;;;5035486;28;20738;-81
2024/02/09 03:07:48;;;;;;;12.13;9.43;;;;;;;;;;5035109;28;20421;-81
2024/02/09 03:10:14;;;;;;;10.70;9.35;;;;;;;;;;5035361;28;20371;-81
2024/02/09 03:12:43;;;;;;;11.20;10.10;;;;;;;;;;5035815;28;20383;-81
2024/02/09 03:15:09;;;;;;;10.50;9.50;;;;;;;;;;5035274;28;20892;-82
2024/02/09 03:17:39;;;;;;;10.00;9.07;;;;;;;;;;5035368;28;20383;-81
2024/02/09 03:20:06;;;;;;;11.10;10.10;;;;;;;;;;5034798;28;20459;-81
2024/02/09 03:22:33;;;;;;;11.18;10.07;;;;;;;;;;5035617;28;20969;-81
2024/02/09 03:25:08;;;;;;;11.73;10.52;;;;;;;;;;5035971;28;20902;-81
2024/02/09 03:27:35;;;;;;;11.65;10.43;;;;;;;;;;5035853;28;20447;-81
2024/02/09 03:30:01;;;;;;;11.15;10.05;;;;;;;;;;5035616;28;20786;-81
2024/02/09 03:32:28;;;;;;;11.93;10.73;;;;;;;;;;5035121;28;20395;-81
2024/02/09 03:34:55;;;;;;;11.45;10.35;;;;;;;;;;5035519;28;20429;-81
2024/02/09 03:37:26;;;;;;;9.10;7.63;;;;;;;;;;5034431;28;20383;-82
2024/02/09 03:39:55;;;;;;;8.48;7.07;;;;;;;;;;5034484;28;20379;-81
2024/02/09 03:42:23;;;;;;;8.02;7.22;;;;;;;;;;5033868;28;20853;-81
2024/02/09 03:44:54;;;;;;;7.93;7.13;;;;;;;;;;5033455;28;20383;-81
2024/02/09 03:47:22;;;;;;;7.63;6.82;;;;;;;;;;5033096;28;20375;-81
2024/02/09 03:49:49;;;;;;;8.35;7.50;;;;;;;;;;5033717;28;20387;-81
2024/02/09 03:52:15;;;;;;;9.00;6.75;;;;;;;;;;5033573;28;20383;-81
2024/02/09 03:54:41;;;;;;;7.13;6.43;;;;;;;;;;5033207;28;20407;-81
2024/02/09 03:57:07;;;;;;;6.60;5.72;;;;;;;;;;5033184;28;20409;-81
2024/02/09 03:59:33;;;;;;;6.90;5.78;;;;;;;;;;5033652;28;20376;-81
2024/02/09 04:02:06;;;;;;;6.03;4.95;;;;;;;;;;5034483;28;20466;-81
2024/02/09 04:04:32;;;;;;;8.20;5.17;;;;;;;;;;5034324;28;20399;-81
2024/02/09 04:06:59;;;;;;;5.75;5.10;;;;;;;;;;5038318;28;20387;-81
2024/02/09 04:09:25;;;;;;;5.22;4.45;;;;;;;;;;5038400;28;20853;-81
2024/02/09 04:11:51;;;;;;;5.65;4.60;;;;;;;;;;5037564;28;20702;-81
2024/02/09 04:14:17;;;;;;;5.43;4.30;;;;;;;;;;5038174;28;20525;-81
2024/02/09 04:16:43;;;;;;;6.10;4.60;;;;;;;;;;5038748;28;20462;-81
2024/02/09 04:19:09;;;;;;;5.78;4.22;;;;;;;;;;5038195;28;20386;-81
2024/02/09 04:21:47;;;;;;;6.93;4.35;;;;;;;;;;5038544;28;20383;-82
2024/02/09 04:24:13;;;;;;;7.20;4.43;;;;;;;;;;5037924;28;20948;-81
2024/02/09 04:26:40;;;;;;;6.75;4.78;;;;;;;;;;5038185;28;20426;-81
2024/02/09 04:29:07;;;;;;;6.67;4.90;;;;;;;;;;5037347;28;20383;-81
2024/02/09 04:31:33;;;;;;;6.03;4.63;;;;;;;;;;5037298;28;20387;-81
2024/02/09 04:33:59;;;;;;;5.55;4.85;;;;;;;;;;5037202;28;20742;-81
2024/02/09 04:36:29;;;;;;;5.25;4.22;;;;;;;;;;5037195;28;20425;-82
2024/02/09 04:38:55;;;;;;;5.38;4.47;;;;;;;;;;5037412;28;20859;-81
2024/02/09 04:41:21;;;;;;;6.43;4.67;;;;;;;;;;5036469;28;20387;-81
2024/02/09 04:43:50;;;;;;;6.43;4.50;;;;;;;;;;5036766;28;20390;-82
2024/02/09 04:46:23;;;;;;;6.82;4.47;;;;;;;;;;5037020;28;20846;-81
2024/02/09 04:48:50;;;;;;;6.05;5.13;;;;;;;;;;5036124;28;20395;-82
2024/02/09 04:51:16;;;;;;;6.07;4.43;;;;;;;;;;5036331;28;20474;-81
2024/02/09 04:53:42;;;;;;;5.28;4.50;;;;;;;;;;5036579;28;20403;-81
2024/02/09 04:56:09;;;;;;;5.45;4.85;;;;;;;;;;5035785;28;20410;-82
2024/02/09 04:58:36;;;;;;;5.72;4.50;;;;;;;;;;5035568;28;20385;-82
2024/02/09 05:01:02;;;;;;;7.47;4.47;;;;;;;;;;5035113;28;20421;-82
2024/02/09 05:03:28;;;;;;;5.78;4.45;;;;;;;;;;5035873;28;20407;-82
2024/02/09 05:05:54;;;;;;;7.50;4.23;;;;;;;;;;5036221;28;20425;-81
2024/02/09 05:08:20;;;;;;;7.47;4.32;;;;;;;;;;5035851;28;20395;-82
2024/02/09 05:10:46;;;;;;;4.80;3.67;;;;;;;;;;5035779;28;20429;-82
2024/02/09 05:13:13;;;;;;;6.03;4.10;;;;;;;;;;5035178;28;20534;-81
2024/02/09 05:15:38;;;;;;;6.82;3.80;;;;;;;;;;5035323;28;20462;-82
2024/02/09 05:18:05;;;;;;;4.45;3.67;;;;;;;;;;5035282;28;20816;-82
2024/02/09 05:20:30;;;;;;;6.07;4.05;;;;;;;;;;5035430;28;20391;-81
2024/02/09 05:22:57;;;;;;;5.63;3.80;;;;;;;;;;5035599;28;20382;-82
2024/02/09 05:25:23;;;;;;;5.43;3.72;;;;;;;;;;5035569;28;20966;-81
2024/02/09 05:27:50;;;;;;;5.45;3.53;;;;;;;;;;5036260;28;20741;-82
2024/02/09 05:30:16;;;;;;;4.30;3.20;;;;;;;;;;5036370;28;20437;-82
2024/02/09 05:32:42;;;;;;;4.10;3.30;;;;;;;;;;5035799;28;20385;-81
2024/02/09 05:35:09;;;;;;;4.70;3.13;;;;;;;;;;5035232;28;20406;-82
2024/02/09 05:37:35;;;;;;;5.90;3.40;;;;;;;;;;5035789;28;20972;-82
2024/02/09 05:40:01;;;;;;;5.07;2.60;;;;;;;;;;5035722;28;20379;-82
2024/02/09 05:42:27;;;;;;;3.95;2.88;;;;;;;;;;5018058;28;20402;-82
2024/02/09 05:44:53;;;;;;;2.97;2.42;;;;;;;;;;5036228;28;20403;-81
2024/02/09 05:47:19;;;;;;;3.63;2.40;;;;;;;;;;5035728;28;20861;-82
2024/02/09 05:49:47;;;;;;;5.07;2.78;;;;;;;;;;5035299;28;20387;-82
2024/02/09 05:52:13;;;;;;;3.72;2.20;;;;;;;;;;5035050;28;20391;-81
2024/02/09 05:54:39;;;;;;;5.85;2.72;;;;;;;;;;5034488;28;20911;-82
2024/02/09 05:57:06;;;;;;;4.15;2.75;;;;;;;;;;5035314;28;20382;-82
2024/02/09 05:59:32;;;;;;;5.00;2.80;;;;;;;;;;5035230;28;20379;-81
2024/02/09 06:01:58;;;;;;;4.60;3.08;;;;;;;;;;5035067;28;20441;-82
2024/02/09 06:04:24;;;;;;;3.55;2.78;;;;;;;;;;5035426;28;20403;-81
2024/02/09 06:06:50;;;;;;;3.97;2.97;;;;;;;;;;5034765;28;20392;-82
2024/02/09 06:09:16;;;;;;;5.93;3.00;;;;;;;;;;5034997;28;20383;-82
2024/02/09 06:11:42;;;;;;;6.63;3.03;;;;;;;;;;5035173;28;20783;-82
2024/02/09 06:14:09;;;;;;;4.78;2.80;;;;;;;;;;5034541;28;20438;-81
2024/02/09 06:16:35;;;;;;;4.43;3.00;;;;;;;;;;5034880;28;20443;-82
2024/02/09 06:19:01;;;;;;;3.67;3.15;;;;;;;;;;5034466;28;20387;-82
2024/02/09 06:21:27;;;;;;;7.00;4.10;;;;;;;;;;5034970;28;20461;-82
2024/02/09 06:23:53;;;;;;;5.32;3.42;;;;;;;;;;5034320;28;20510;-82
2024/02/09 06:26:23;;;;;;;4.70;3.53;;;;;;;;;;5034573;28;20530;-81
2024/02/09 06:28:49;;;;;;;4.72;3.35;;;;;;;;;;5033854;28;20386;-82
2024/02/09 06:31:23;;;;;;;5.25;3.65;;;;;;;;;;5034588;28;20474;-83
2024/02/09 06:33:50;;;;;;;4.15;3.58;;;;;;;;;;5033870;28;20407;-82
2024/02/09 06:36:17;;;;;;;4.05;3.10;;;;;;;;;;5034391;28;20387;-82
2024/02/09 06:38:43;;;;;;;4.75;3.55;;;;;;;;;;5034188;28;20371;-82
2024/02/09 06:41:09;;;;;;;5.35;3.55;;;;;;;;;;5034403;28;21085;-82
2024/02/09 06:43:35;;;;;;;5.00;3.58;;;;;;;;;;5034309;28;20386;-80
2024/02/09 06:46:01;;;;;;;5.28;3.30;;;;;;;;;;5035641;28;20379;-81
2024/02/09 06:48:28;;;;;;;3.80;2.90;;;;;;;;;;5035239;28;20387;-80
2024/02/09 06:50:54;;;;;;;3.83;3.17;;;;;;;;;;5035296;28;20422;-80
2024/02/09 06:53:22;;;;;;;4.95;3.30;;;;;;;;;;5034779;28;20391;-80
2024/02/09 06:55:53;;;;;;;4.38;3.33;;;;;;;;;;5034934;28;20379;-80
2024/02/09 06:58:24;;;;;;;3.97;3.50;;;;;;;;;;5035049;28;20467;-81
2024/02/09 07:00:53;;;;;;;3.30;2.85;;;;;;;;;;5035208;28;20857;-81
2024/02/09 07:03:21;;;;;;;5.30;4.67;;;;;;;;;;5034780;28;20941;-80
2024/02/09 07:05:51;;;;;;;4.95;3.58;;;;;;;;;;5034346;28;20379;-80
2024/02/09 07:08:18;;;;;;;5.18;3.50;;;;;;;;;;5033928;28;20391;-80
2024/02/09 07:10:44;;;;;;;4.28;3.67;;;;;;;;;;5034693;28;20406;-80
2024/02/09 07:13:16;;;;;;;4.88;3.55;;;;;;;;;;5034435;28;20449;-80
2024/02/09 07:15:42;;;;;;;6.43;4.32;;;;;;;;;;5034324;28;20379;-80
2024/02/09 07:18:08;;;;;;;5.72;3.78;;;;;;;;;;5032833;28;20391;-80
2024/02/09 07:20:35;;;;;;;7.07;4.50;;;;;;;;;;5034402;28;20471;-82
2024/02/09 07:23:04;;;;;;;5.10;4.43;;;;;;;;;;5034368;28;20473;-80
2024/02/09 07:25:30;;;;;;;6.97;4.53;;;;;;;;;;5034506;28;20383;-80
2024/02/09 07:27:56;;;;;;;8.60;5.30;;;;;;;;;;5034371;28;20379;-80
2024/02/09 07:30:25;;;;;;;7.20;5.60;;;;;;;;;;5034191;28;20443;-80
2024/02/09 07:32:51;;;;;;;11.65;7.18;;;;;;;;;;5034450;28;20454;-80
2024/02/09 07:35:17;;;;;;;7.90;6.22;;;;;;;;;;5034577;28;20410;-81
2024/02/09 07:37:43;;;;;;;9.07;5.53;;;;;;;;;;5034386;28;20959;-80
2024/02/09 07:40:10;;;;;;;7.45;5.45;;;;;;;;;;5036994;28;20371;-81
2024/02/09 07:42:36;;;;;;;5.70;5.10;;;;;;;;;;5038441;28;20375;-81
2024/02/09 07:45:02;;;;;;;7.50;5.22;;;;;;;;;;5038508;28;20386;-81
2024/02/09 07:47:28;;;;;;;6.43;5.30;;;;;;;;;;5038993;28;20474;-81
2024/02/09 07:49:54;;;;;;;9.43;6.10;;;;;;;;;;5039144;28;20383;-81
2024/02/09 07:52:20;;;;;;;14.80;9.18;;;;;;;;;;5038888;28;20402;-80
2024/02/09 07:54:46;;;;;;;11.50;8.13;;;;;;;;;;5038867;28;20501;-81
2024/02/09 07:57:13;;;;;;;10.10;7.13;;;;;;;;;;5038133;28;20390;-81
2024/02/09 07:59:40;;;;;;;7.93;6.22;;;;;;;;;;5037925;28;20385;-81
2024/02/09 08:02:06;;;;;;;6.22;5.55;;;;;;;;;;5036934;28;20386;-81
2024/02/09 08:04:32;;;;;;;7.83;5.70;;;;;;;;;;5037009;28;20410;-81
2024/02/09 08:06:58;;;;;;;6.80;5.85;;;;;;;;;;5036980;28;20391;-80
2024/02/09 08:09:24;;;;;;;7.82;6.13;;;;;;;;;;5036977;28;20390;-81
2024/02/09 08:11:50;;;;;;;8.75;6.45;;;;;;;;;;5036612;28;20391;-81
2024/02/09 08:14:16;;;;;;;9.25;7.03;;;;;;;;;;5036494;28;20433;-81
2024/02/09 08:16:43;;;;;;;7.28;6.57;;;;;;;;;;5036954;28;20462;-81
2024/02/09 08:19:09;;;;;;;7.00;5.93;;;;;;;;;;5036407;28;20382;-80
2024/02/09 08:21:38;;;;;;;7.18;5.53;;;;;;;;;;5036767;28;20458;-80
2024/02/09 08:24:04;;;;;;;6.80;6.10;;;;;;;;;;5036885;28;20387;-81
2024/02/09 08:26:30;;;;;;;6.75;6.15;;;;;;;;;;5036479;28;20383;-80
2024/02/09 08:28:56;;;;;;;8.10;6.22;;;;;;;;;;5036149;28;20387;-80
2024/02/09 08:31:22;;;;;;;6.70;5.37;;;;;;;;;;5036687;28;20383;-80
2024/02/09 08:33:49;;;;;;;9.55;7.50;;;;;;;;;;5036013;28;20437;-80
2024/02/09 08:36:24;;;;;;;5.88;4.90;;;;;;;;;;5036372;28;20375;-80
2024/02/09 08:38:51;;;;;;;5.47;4.55;;;;;;;;;;5036111;28;20864;-80
2024/02/09 08:41:18;;;;;;;6.30;4.53;;;;;;;;;;5036317;28;20839;-81
2024/02/09 08:43:44;;;;;;;7.18;4.68;;;;;;;;;;5036581;28;20410;-80
2024/02/09 08:46:10;;;;;;;5.45;4.30;;;;;;;;;;5035862;28;20391;-80
2024/02/09 08:48:36;;;;;;;5.85;4.68;;;;;;;;;;5036056;28;20387;-80
2024/02/09 08:51:02;;;;;;;8.05;5.15;;;;;;;;;;5035529;28;20401;-81
2024/02/09 08:53:28;;;;;;;5.63;4.35;;;;;;;;;;5036217;28;20391;-81
2024/02/09 08:55:54;;;;;;;6.45;4.75;;;;;;;;;;5036287;28;20395;-81
2024/02/09 08:58:20;;;;;;;5.47;4.32;;;;;;;;;;5036151;28;20883;-81
2024/02/09 09:00:47;;;;;;;5.22;4.53;;;;;;;;;;5036631;28;20387;-80
2024/02/09 09:03:14;;;;;;;7.22;4.82;;;;;;;;;;5036367;28;20399;-81
2024/02/09 09:05:40;;;;;;;6.93;4.90;;;;;;;;;;5036788;28;20466;-81
2024/02/09 09:08:07;;;;;;;5.90;5.00;;;;;;;;;;5036418;28;20379;-81
2024/02/09 09:10:34;;;;;;;7.93;5.57;;;;;;;;;;5037160;28;20387;-81
2024/02/09 09:13:00;;;;;;;7.75;5.43;;;;;;;;;;5037243;28;20829;-81
2024/02/09 09:15:26;;;;;;;5.43;4.57;;;;;;;;;;5037644;28;20453;-81
2024/02/09 09:17:52;;;;;;;5.70;4.80;;;;;;;;;;5037146;28;20387;-81
2024/02/09 09:20:18;;;;;;;7.93;5.50;;;;;;;;;;5019476;28;20391;-81
2024/02/09 09:22:44;;;;;;;13.65;8.68;;;;;;;;;;5036978;28;20457;-80
2024/02/09 09:25:10;;;;;;;14.45;8.23;;;;;;;;;;5036664;28;20398;-80
2024/02/09 09:27:36;;;;;;;6.22;4.90;;;;;;;;;;5036275;28;20403;-80
2024/02/09 09:30:05;;;;;;;9.50;4.45;;;;;;;;;;5035720;28;20454;-80
2024/02/09 09:32:32;;;;;;;5.57;4.75;;;;;;;;;;5035865;28;20381;-80
2024/02/09 09:34:59;;;;;;;7.45;4.57;;;;;;;;;;5035508;28;20810;-80
2024/02/09 09:37:25;;;;;;;7.07;4.33;;;;;;;;;;5035662;28;20375;-81
2024/02/09 09:39:51;;;;;;;5.63;4.53;;;;;;;;;;5034840;28;20429;-80
2024/02/09 09:42:17;;;;;;;4.50;4.10;;;;;;;;;;5034816;28;20403;-81
2024/02/09 09:44:43;;;;;;;4.13;3.73;;;;;;;;;;5036086;28;20780;-80
2024/02/09 09:47:09;;;;;;;5.57;3.53;;;;;;;;;;5035698;28;20393;-81
2024/02/09 09:49:39;;;;;;;5.15;3.60;;;;;;;;;;5035938;28;20387;-81
2024/02/09 09:52:08;;;;;;;7.20;4.07;;;;;;;;;;5035684;28;20390;-81
2024/02/09 09:54:34;;;;;;;5.95;4.03;;;;;;;;;;5035309;28;20403;-81
2024/02/09 09:57:01;;;;;;;5.20;3.55;;;;;;;;;;5034965;28;20373;-81
2024/02/09 09:59:27;;;;;;;4.57;3.70;;;;;;;;;;5036907;28;20454;-81
2024/02/09 10:01:53;;;;;;;3.75;3.45;;;;;;;;;;5035699;28;20861;-81
2024/02/09 10:04:19;;;;;;;6.70;3.78;;;;;;;;;;5036079;28;20494;-81
2024/02/09 10:06:45;;;;;;;4.30;3.60;;;;;;;;;;5036244;28;20387;-81
2024/02/09 10:09:12;;;;;;;4.55;3.15;;;;;;;;;;5033875;28;20371;-81
2024/02/09 10:11:40;;;;;;;3.45;2.65;;;;;;;;;;5036220;28;20752;-81
2024/02/09 10:14:14;;;;;;;5.00;3.70;;;;;;;;;;5035777;28;20753;-81
2024/02/09 10:16:41;;;;;;;3.90;3.30;;;;;;;;;;5035878;28;20394;-81
2024/02/09 10:19:07;;;;;;;5.70;3.85;;;;;;;;;;5035922;28;20958;-81
2024/02/09 10:21:34;;;;;;;6.07;3.72;;;;;;;;;;5036359;28;20383;-81
2024/02/09 10:24:01;;;;;;;6.20;3.58;;;;;;;;;;5036048;28;20445;-81
2024/02/09 10:26:27;;;;;;;3.83;3.40;;;;;;;;;;5035902;28;20833;-81
2024/02/09 10:28:54;;;;;;;5.40;3.20;;;;;;;;;;5035912;28;20390;-81
2024/02/09 10:31:22;;;;;;;4.07;3.23;;;;;;;;;;5035969;28;20383;-81
2024/02/09 10:33:51;;;;;;;5.13;3.50;;;;;;;;;;5035216;28;20410;-81
2024/02/09 10:36:17;;;;;;;4.20;3.30;;;;;;;;;;5035269;28;20386;-81
2024/02/09 10:38:46;;;;;;;5.85;3.70;;;;;;;;;;5035090;28;20378;-81
2024/02/09 10:41:13;;;;;;;4.50;3.03;;;;;;;;;;5035328;28;20498;-81
2024/02/09 10:43:41;;;;;;;7.20;3.60;;;;;;;;;;5036374;28;20423;-81
2024/02/09 10:46:08;;;;;;;7.03;6.03;;;;;;;;;;5035613;28;20395;-81
2024/02/09 10:48:35;;;;;;;5.70;3.00;;;;;;;;;;5035317;28;20486;-82
2024/02/09 10:51:02;;;;;;;4.97;3.25;;;;;;;;;;5035661;28;20393;-81
2024/02/09 10:53:30;;;;;;;4.55;3.58;;;;;;;;;;5035174;28;20394;-82
2024/02/09 10:56:04;;;;;;;5.00;4.20;;;;;;;;;;5035209;28;20754;-81
2024/02/09 10:58:34;;;;;;;6.27;4.50;;;;;;;;;;5035059;28;20375;-81
2024/02/09 11:01:01;;;;;;;7.40;3.38;;;;;;;;;;5035084;28;20725;-81
2024/02/09 11:03:28;;;;;;;4.60;2.95;;;;;;;;;;5035017;28;20395;-81
2024/02/09 11:05:55;;;;;;;5.13;3.33;;;;;;;;;;5035080;28;20387;-80
2024/02/09 11:08:21;;;;;;;3.20;2.88;;;;;;;;;;5035234;28;20379;-81
2024/02/09 11:10:56;;;;;;;3.88;3.05;;;;;;;;;;5034880;28;20446;-81
2024/02/09 11:13:25;;;;;;;4.38;3.10;;;;;;;;;;5034301;28;20445;-81
2024/02/09 11:15:58;;;;;;;4.03;3.15;;;;;;;;;;5034838;28;20441;-81
2024/02/09 11:18:34;;;;;;;4.25;3.70;;;;;;;;;;5034185;28;20398;-81
2024/02/09 11:21:04;;;;;;;6.53;2.97;;;;;;;;;;5034143;28;20390;-81
2024/02/09 11:23:34;;;;;;;6.03;3.40;;;;;;;;;;5034495;28;20410;-81
2024/02/09 11:26:04;;;;;;;4.00;3.30;;;;;;;;;;5034457;28;20776;-81
2024/02/09 11:28:30;;;;;;;4.82;3.70;;;;;;;;;;5034289;28;20383;-81
2024/02/09 11:30:58;;;;;;;5.70;3.20;;;;;;;;;;5034312;28;20441;-81
2024/02/09 11:33:24;;;;;;;3.70;2.97;;;;;;;;;;5034437;28;20383;-81
2024/02/09 11:35:51;;;;;;;5.13;4.63;;;;;;;;;;5035042;28;20796;-81
2024/02/09 11:38:21;;;;;;;6.85;3.90;;;;;;;;;;5034597;28;20375;-81
2024/02/09 11:40:53;;;;;;;5.63;3.92;;;;;;;;;;5033983;28;20379;-81
2024/02/09 11:43:19;;;;;;;5.97;4.47;;;;;;;;;;5034943;28;20872;-81
2024/02/09 11:45:45;;;;;;;5.65;4.07;;;;;;;;;;5034209;28;20799;-81
2024/02/09 11:48:15;;;;;;;4.43;4.03;;;;;;;;;;5034607;28;20851;-81
2024/02/09 11:50:43;;;;;;;4.55;3.30;;;;;;;;;;5034721;28;20378;-81
2024/02/09 11:53:09;;;;;;;5.18;3.40;;;;;;;;;;5034680;28;20379;-81
2024/02/09 11:55:42;;;;;;;3.60;3.10;;;;;;;;;;5034185;28;20404;-81
2024/02/09 11:58:09;;;;;;;3.60;3.20;;;;;;;;;;5034557;28;20387;-81
2024/02/09 12:00:35;;;;;;;4.95;2.90;;;;;;;;;;5033830;28;20718;-81
2024/02/09 12:03:03;;;;;;;3.15;2.58;;;;;;;;;;5034005;28;20414;-81
2024/02/09 12:05:29;;;;;;;3.93;3.10;;;;;;;;;;5034645;28;20891;-81
2024/02/09 12:07:55;;;;;;;3.63;3.22;;;;;;;;;;5034463;28;20462;-81
2024/02/09 12:10:21;;;;;;;4.50;3.55;;;;;;;;;;5034949;28;20414;-81
2024/02/09 12:12:48;;;;;;;3.65;3.15;;;;;;;;;;5034689;28;20382;-81
2024/02/09 12:15:15;;;;;;;5.03;2.90;;;;;;;;;;5034579;28;20435;-81
2024/02/09 12:17:43;;;;;;;3.45;2.45;;;;;;;;;;5032905;28;20398;-82
2024/02/09 12:20:09;;;;;;;3.63;3.00;;;;;;;;;;5034280;28;20385;-82
2024/02/09 12:22:39;;;;;;;4.88;2.85;;;;;;;;;;5034043;28;20871;-81
2024/02/09 12:25:05;;;;;;;3.60;2.63;;;;;;;;;;5033978;28;20375;-81
2024/02/09 12:27:31;;;;;;;3.97;2.67;;;;;;;;;;5037601;28;20422;-81
2024/02/09 12:29:57;;;;;;;3.58;2.40;;;;;;;;;;5038224;28;20853;-81
2024/02/09 12:32:24;;;;;;;3.50;2.58;;;;;;;;;;5038125;28;20876;-81
2024/02/09 12:34:54;;;;;;;4.60;2.30;;;;;;;;;;5038180;28;20406;-81
2024/02/09 12:37:21;;;;;;;2.53;2.20;;;;;;;;;;5038045;28;20379;-81
2024/02/09 12:39:48;;;;;;;4.00;2.30;;;;;;;;;;5037614;28;20499;-81
2024/02/09 12:42:14;;;;;;;3.03;2.30;;;;;;;;;;5037788;28;20386;-81
2024/02/09 12:44:44;;;;;;;3.25;2.20;;;;;;;;;;5037734;28;20383;-81
2024/02/09 12:47:10;;;;;;;3.92;2.42;;;;;;;;;;5037780;28;20387;-81
2024/02/09 12:49:36;;;;;;;3.72;1.98;;;;;;;;;;5037783;28;20406;-81
2024/02/09 12:52:04;;;;;;;3.53;2.35;;;;;;;;;;5037758;28;20387;-81
2024/02/09 12:54:30;;;;;;;4.75;2.53;;;;;;;;;;5037360;28;20395;-81
2024/02/09 12:56:56;;;;;;;3.70;2.25;;;;;;;;;;5037451;28;20399;-81
2024/02/09 12:59:23;;;;;;;2.60;2.28;;;;;;;;;;5037853;28;20715;-81
2024/02/09 13:01:49;;;;;;;4.60;2.60;;;;;;;;;;5037330;28;20379;-81
2024/02/09 13:04:15;;;;;;;3.22;2.20;;;;;;;;;;5037191;28;20464;-81
2024/02/09 13:06:41;;;;;;;4.05;2.50;;;;;;;;;;5037275;28;20484;-81
2024/02/09 13:09:07;;;;;;;4.38;2.80;;;;;;;;;;5037740;28;20423;-81
2024/02/09 13:11:33;;;;;;;3.25;2.90;;;;;;;;;;5036188;28;20387;-82
2024/02/09 13:13:59;;;;;;;5.00;2.47;;;;;;;;;;5037115;28;20411;-82
2024/02/09 13:16:25;;;;;;;3.60;2.33;;;;;;;;;;5036801;28;20452;-83
2024/02/09 13:18:51;;;;;;;3.73;2.70;;;;;;;;;;5042641;28;20378;-85
2024/02/09 13:21:20;;;;;;;4.05;2.20;;;;;;;;;;5040578;28;20601;-84
2024/02/09 13:23:47;;;;;;;4.40;2.08;;;;;;;;;;5037301;28;20517;-82
2024/02/09 13:26:15;;;;;;;4.28;2.55;;;;;;;;;;5037562;28;20383;-83
2024/02/09 13:28:42;;;;;;;4.28;2.70;;;;;;;;;;5038634;28;20379;-84
2024/02/09 13:31:11;;;;;;;3.55;2.90;;;;;;;;;;5041682;28;20392;-84
2024/02/09 13:33:38;;;;;;;3.92;2.63;;;;;;;;;;5036792;28;20390;-83
2024/02/09 13:36:05;;;;;;;5.00;3.35;;;;;;;;;;5036095;28;20869;-82
2024/02/09 13:38:36;;;;;;;3.45;3.15;;;;;;;;;;5035760;28;20403;-82
2024/02/09 13:41:02;;;;;;;4.32;3.20;;;;;;;;;;5035873;28;21061;-82
2024/02/09 13:43:28;;;;;;;4.30;2.65;;;;;;;;;;5035812;28;20428;-82
2024/02/09 13:45:56;;;;;;;4.10;2.60;;;;;;;;;;5035814;28;20422;-82
2024/02/09 13:48:22;;;;;;;3.78;2.53;;;;;;;;;;5036616;28;20418;-83
2024/02/09 13:50:48;;;;;;;2.58;1.98;;;;;;;;;;5035869;28;20454;-81
2024/02/09 13:53:17;;;;;;;4.82;2.50;;;;;;;;;;5035934;28;20525;-82
2024/02/09 13:55:43;;;;;;;4.47;2.57;;;;;;;;;;5035623;28;20399;-82
2024/02/09 13:58:11;;;;;;;3.90;2.20;;;;;;;;;;5035746;28;20415;-81
2024/02/09 14:00:39;;;;;;;3.50;2.25;;;;;;;;;;5035940;28;20375;-82
2024/02/09 14:03:05;;;;;;;2.70;1.80;;;;;;;;;;5035483;28;20469;-82
2024/02/09 14:05:31;;;;;;;3.38;1.92;;;;;;;;;;5035844;28;20388;-82
2024/02/09 14:07:57;;;;;;;4.43;2.13;;;;;;;;;;5035177;28;20379;-81
2024/02/09 14:10:23;;;;;;;3.13;2.00;;;;;;;;;;5035535;28;20881;-82
2024/02/09 14:12:49;;;;;;;3.23;2.10;;;;;;;;;;5035695;28;20387;-82
2024/02/09 14:15:15;;;;;;;3.30;2.13;;;;;;;;;;5035269;28;20433;-82
2024/02/09 14:17:41;;;;;;;4.30;2.33;;;;;;;;;;5035303;28;20385;-81
2024/02/09 14:20:07;;;;;;;3.40;2.40;;;;;;;;;;5035862;28;20370;-81
2024/02/09 14:22:34;;;;;;;3.72;2.30;;;;;;;;;;5035697;28;20379;-82
2024/02/09 14:25:02;;;;;;;2.58;2.03;;;;;;;;;;5036127;28;20379;-82
2024/02/09 14:27:29;;;;;;;5.50;4.40;;;;;;;;;;5035147;28;20767;-82
2024/02/09 14:29:55;;;;;;;5.45;3.60;;;;;;;;;;5035208;28;20380;-82
2024/02/09 14:32:22;;;;;;;5.93;3.65;;;;;;;;;;5034768;28;20470;-82
2024/02/09 14:34:48;;;;;;;5.18;3.50;;;;;;;;;;5035298;28;20418;-82
2024/02/09 14:37:14;;;;;;;3.38;3.08;;;;;;;;;;5034954;28;20945;-82
2024/02/09 14:39:44;;;;;;;2.70;2.50;;;;;;;;;;5034964;28;20399;-82
2024/02/09 14:42:11;;;;;;;4.82;3.08;;;;;;;;;;5034847;28;20432;-82
2024/02/09 14:44:37;;;;;;;5.47;3.00;;;;;;;;;;5035276;28;20390;-82
2024/02/09 14:47:04;;;;;;;6.80;4.78;;;;;;;;;;5035225;28;20407;-81
2024/02/09 14:49:30;;;;;;;8.40;4.63;;;;;;;;;;5034322;28;20381;-81
2024/02/09 14:51:56;;;;;;;4.50;3.20;;;;;;;;;;5034928;28;20375;-81
2024/02/09 14:54:22;;;;;;;3.92;2.97;;;;;;;;;;5034343;28;20756;-82
2024/02/09 14:56:48;;;;;;;3.10;2.75;;;;;;;;;;5033842;28;20390;-83
2024/02/09 14:59:14;;;;;;;2.80;2.58;;;;;;;;;;5034600;28;20383;-82
2024/02/09 15:01:40;;;;;;;5.15;3.50;;;;;;;;;;5034506;28;20792;-83
2024/02/09 15:04:06;;;;;;;3.70;2.75;;;;;;;;;;5034028;28;20431;-82
2024/02/09 15:06:33;;;;;;;4.10;2.85;;;;;;;;;;5034591;28;20387;-81
2024/02/09 15:08:59;;;;;;;3.13;2.30;;;;;;;;;;5033857;28;20400;-81
2024/02/09 15:11:25;;;;;;;3.53;2.88;;;;;;;;;;5034365;28;20465;-81
2024/02/09 15:13:52;;;;;;;4.20;2.60;;;;;;;;;;5034079;28;20461;-81
2024/02/09 15:16:19;;;;;;;2.70;2.40;;;;;;;;;;5034015;28;21200;-81
2024/02/09 15:18:45;;;;;;;3.45;2.63;;;;;;;;;;5034197;28;20375;-81
2024/02/09 15:21:12;;;;;;;3.10;2.80;;;;;;;;;;5034346;28;20399;-81
2024/02/09 15:23:39;;;;;;;2.90;2.60;;;;;;;;;;5033916;28;20371;-81
2024/02/09 15:26:05;;;;;;;3.63;3.07;;;;;;;;;;5033995;28;20922;-82
2024/02/09 15:28:31;;;;;;;4.32;3.08;;;;;;;;;;5033454;28;20390;-81
2024/02/09 15:30:58;;;;;;;5.18;3.05;;;;;;;;;;5034114;28;20378;-82
2024/02/09 15:33:27;;;;;;;2.90;2.50;;;;;;;;;;5034225;28;20387;-81
2024/02/09 15:35:57;;;;;;;4.38;2.83;;;;;;;;;;5034672;28;20773;-81
2024/02/09 15:38:23;;;;;;;4.45;2.60;;;;;;;;;;5034729;28;20410;-84
2024/02/09 15:40:49;;;;;;;3.65;2.47;;;;;;;;;;5036092;28;20371;-84
2024/02/09 15:43:17;;;;;;;3.67;2.63;;;;;;;;;;5035425;28;20856;-81
2024/02/09 15:45:44;;;;;;;4.45;2.50;;;;;;;;;;5035265;28;20405;-82
2024/02/09 15:48:10;;;;;;;4.37;2.90;;;;;;;;;;5037405;28;20384;-85
2024/02/09 15:50:36;;;;;;;5.60;3.40;;;;;;;;;;5034692;28;20505;-83
2024/02/09 15:53:09;;;;;;;4.05;3.10;;;;;;;;;;5038595;28;20761;-83
2024/02/09 15:55:35;;;;;;;3.75;3.35;;;;;;;;;;5038691;28;20796;-83
2024/02/09 15:58:01;;;;;;;3.80;3.40;;;;;;;;;;5033601;28;20486;-83
2024/02/09 16:00:27;;;;;;;4.68;3.58;;;;;;;;;;5036221;28;20854;-83
2024/02/09 16:02:56;;;;;;;4.18;3.70;;;;;;;;;;5038114;28;20445;-83
2024/02/09 16:05:22;;;;;;;4.68;4.10;;;;;;;;;;5038621;28;20390;-83
2024/02/09 16:07:48;;;;;;;4.20;3.50;;;;;;;;;;5038101;28;20394;-84
2024/02/09 16:10:20;;;;;;;4.75;4.00;;;;;;;;;;5038084;28;20399;-84
2024/02/09 16:12:48;;;;;;;4.60;3.80;;;;;;;;;;5038788;28;20383;-84
2024/02/09 16:15:21;;;;;;;4.60;4.20;;;;;;;;;;5037014;28;20399;-83
2024/02/09 16:17:47;;;;;;;4.93;4.10;;;;;;;;;;5037347;28;20379;-82
2024/02/09 16:20:16;;;;;;;5.77;4.27;;;;;;;;;;5036558;28;20469;-83
2024/02/09 16:22:46;;;;;;;4.60;4.00;;;;;;;;;;5037249;28;20432;-83
2024/02/09 16:25:16;;;;;;;5.45;3.83;;;;;;;;;;5037724;28;20394;-83
2024/02/09 16:27:43;;;;;;;4.93;3.92;;;;;;;;;;5036983;28;20383;-83
2024/02/09 16:30:09;;;;;;;7.43;5.20;;;;;;;;;;5037055;28;20729;-83